createdAt,value
2022-11-17T00:01:29.998Z,60241.09
2022-11-17T00:03:57.661Z,60241.09
2022-11-17T00:06:25.096Z,61011.59
2022-11-17T00:08:55.118Z,61268.47
2022-11-17T00:11:25.232Z,61268.47
2022-11-17T00:14:14.272Z,61268.47
2022-11-17T00:16:49.903Z,61268.47
2022-11-17T00:19:37.018Z,60754.75
2022-11-17T00:22:12.584Z,61268.47
2022-11-17T00:24:45.333Z,61268.47
2022-11-17T00:27:15.045Z,61268.47
2022-11-17T00:29:42.647Z,61011.59
2022-11-17T00:32:33.874Z,60754.75
2022-11-17T00:35:04.803Z,61268.47
2022-11-17T00:38:01.165Z,61011.59
2022-11-17T00:40:28.967Z,60497.91
2022-11-17T00:42:59.123Z,61011.59
2022-11-17T00:45:26.529Z,60754.75
2022-11-17T00:47:56.358Z,60754.75
2022-11-17T00:50:24.481Z,60497.91
2022-11-17T00:52:51.892Z,60241.09
2022-11-17T00:55:19.820Z,59727.50
2022-11-17T00:57:47.492Z,59214.00
2022-11-17T01:00:16.742Z,59214.00
2022-11-17T01:02:44.402Z,59214.00
2022-11-17T01:05:11.865Z,59214.00
2022-11-17T01:07:39.522Z,59214.00
2022-11-17T01:10:07.473Z,58700.59
2022-11-17T01:12:46.189Z,58443.91
2022-11-17T01:15:13.579Z,58443.91
2022-11-17T01:17:41.969Z,58187.25
2022-11-17T01:20:10.564Z,58187.25
2022-11-17T01:22:37.990Z,57930.59
2022-11-17T01:25:06.083Z,57930.59
2022-11-17T01:27:38.355Z,57930.59
2022-11-17T01:30:06.415Z,58187.25
2022-11-17T01:32:33.810Z,58700.59
2022-11-17T01:35:28.613Z,57930.59
2022-11-17T01:37:59.957Z,58187.25
2022-11-17T01:40:27.452Z,57930.59
2022-11-17T01:42:58.003Z,57930.59
2022-11-17T01:45:26.784Z,57930.59
2022-11-17T01:47:59.849Z,57930.59
2022-11-17T01:50:38.261Z,58187.25
2022-11-17T01:53:11.066Z,58187.25
2022-11-17T01:56:10.998Z,58443.91
2022-11-17T01:58:54.017Z,58443.91
2022-11-17T02:01:25.963Z,58187.25
2022-11-17T02:03:53.958Z,57930.59
2022-11-17T02:06:44.065Z,57417.38
2022-11-17T02:09:14.162Z,58187.25
2022-11-17T02:11:45.051Z,57930.59
2022-11-17T02:14:15.088Z,58443.91
2022-11-17T02:16:42.660Z,57673.97
2022-11-17T02:19:13.268Z,57417.38
2022-11-17T02:21:56.790Z,57417.38
2022-11-17T02:24:53.674Z,57417.38
2022-11-17T02:27:28.215Z,57930.59
2022-11-17T02:30:10.970Z,57673.97
2022-11-17T02:33:01.292Z,57673.97
2022-11-17T02:35:54.725Z,57673.97
2022-11-17T02:38:31.620Z,57930.59
2022-11-17T02:41:12.805Z,57417.38
2022-11-17T02:44:04.002Z,56904.22
2022-11-17T02:46:46.111Z,56647.66
2022-11-17T02:49:24.422Z,56391.13
2022-11-17T02:51:55.519Z,56134.63
2022-11-17T02:54:26.945Z,55621.66
2022-11-17T02:56:57.063Z,55108.78
2022-11-17T02:59:37.647Z,54595.97
2022-11-17T03:02:24.453Z,55108.78
2022-11-17T03:05:30.655Z,54595.97
2022-11-17T03:08:12.069Z,54083.25
2022-11-17T03:10:42.353Z,53826.91
2022-11-17T03:13:26.226Z,53058.03
2022-11-17T03:16:00.759Z,53314.31
2022-11-17T03:18:56.554Z,52997.97
2022-11-17T03:21:32.249Z,52997.97
2022-11-17T03:24:09.603Z,52709.69
2022-11-17T03:26:42.695Z,52217.25
2022-11-17T03:29:14.538Z,52221.28
2022-11-17T03:31:45.562Z,52019.13
2022-11-17T03:34:17.166Z,52285.31
2022-11-17T03:36:51.857Z,51905.03
2022-11-17T03:39:36.594Z,50618.38
2022-11-17T03:42:15.025Z,50818.44
2022-11-17T03:44:49.417Z,50016.25
2022-11-17T03:47:20.888Z,49836.22
2022-11-17T03:50:01.602Z,49464.22
2022-11-17T03:52:33.175Z,49954.22
2022-11-17T03:55:01.909Z,49276.22
2022-11-17T03:58:07.071Z,48872.28
2022-11-17T04:00:36.669Z,48694.31
2022-11-17T04:03:04.199Z,48210.47
2022-11-17T04:05:32.116Z,48034.53
2022-11-17T04:07:59.963Z,49132.22
2022-11-17T04:10:27.611Z,50416.31
2022-11-17T04:13:16.752Z,50660.41
2022-11-17T04:15:59.640Z,51941.06
2022-11-17T04:18:29.665Z,52789.75
2022-11-17T04:20:57.649Z,53314.31
2022-11-17T04:23:26.126Z,53826.91
2022-11-17T04:26:16.168Z,53794.88
2022-11-17T04:28:47.196Z,54595.97
2022-11-17T04:31:25.787Z,54595.97
2022-11-17T04:34:04.430Z,54595.97
2022-11-17T04:36:47.349Z,55108.78
2022-11-17T04:39:15.901Z,55108.78
2022-11-17T04:42:02.134Z,54339.59
2022-11-17T04:44:32.117Z,54083.25
2022-11-17T04:47:03.053Z,54339.59
2022-11-17T04:49:32.341Z,54595.97
2022-11-17T04:52:02.598Z,54852.38
2022-11-17T04:54:30.060Z,55621.66
2022-11-17T04:56:58.758Z,55621.66
2022-11-17T04:59:26.264Z,55878.13
2022-11-17T05:01:59.947Z,56134.63
2022-11-17T05:04:50.366Z,56391.13
2022-11-17T05:07:18.010Z,56391.13
2022-11-17T05:09:47.783Z,56391.13
2022-11-17T05:12:33.689Z,56391.13
2022-11-17T05:15:01.265Z,56647.66
2022-11-17T05:17:30.879Z,56391.13
2022-11-17T05:19:58.313Z,55878.13
2022-11-17T05:22:47.429Z,56391.13
2022-11-17T05:25:14.878Z,56134.63
2022-11-17T05:27:46.263Z,56391.13
2022-11-17T05:30:16.412Z,56647.66
2022-11-17T05:32:45.064Z,56647.66
2022-11-17T05:35:12.755Z,57417.38
2022-11-17T05:37:45.062Z,57160.78
2022-11-17T05:40:13.645Z,57160.78
2022-11-17T05:42:44.849Z,57160.78
2022-11-17T05:45:12.320Z,57673.97
2022-11-17T05:47:39.997Z,57417.38
2022-11-17T05:50:09.719Z,57673.97
2022-11-17T05:52:37.331Z,57673.97
2022-11-17T05:55:07.805Z,58443.91
2022-11-17T05:57:37.994Z,58957.28
2022-11-17T06:00:07.420Z,58957.28
2022-11-17T06:02:50.035Z,59214.00
2022-11-17T06:05:20.779Z,59727.50
2022-11-17T06:07:48.730Z,59470.75
2022-11-17T06:10:18.332Z,59727.50
2022-11-17T06:12:48.058Z,59727.50
2022-11-17T06:15:17.856Z,60497.91
2022-11-17T06:18:19.521Z,61268.47
2022-11-17T06:20:52.258Z,62553.16
2022-11-17T06:23:27.030Z,63067.16
2022-11-17T06:25:55.318Z,59984.28
2022-11-17T06:28:23.615Z,48976.25
2022-11-17T06:30:51.378Z,45211.00
2022-11-17T06:33:19.347Z,46939.22
2022-11-17T06:35:50.737Z,48648.31
2022-11-17T06:38:18.357Z,49696.22
2022-11-17T06:40:45.904Z,50124.25
2022-11-17T06:43:13.493Z,50912.50
2022-11-17T06:45:43.039Z,50976.50
2022-11-17T06:48:14.985Z,51096.56
2022-11-17T06:50:55.921Z,52453.47
2022-11-17T06:53:26.505Z,54079.25
2022-11-17T06:56:06.573Z,55365.22
2022-11-17T06:58:36.130Z,56647.66
2022-11-17T07:01:10.934Z,57160.78
2022-11-17T07:03:40.384Z,57417.38
2022-11-17T07:06:10.002Z,57930.59
2022-11-17T07:08:58.345Z,58187.25
2022-11-17T07:11:46.488Z,59214.00
2022-11-17T07:14:14.413Z,59984.28
2022-11-17T07:16:43.550Z,59984.28
2022-11-17T07:19:11.420Z,59470.75
2022-11-17T07:21:39.094Z,59984.28
2022-11-17T07:24:06.864Z,59984.28
2022-11-17T07:26:36.828Z,59984.28
2022-11-17T07:29:04.315Z,60241.09
2022-11-17T07:31:37.081Z,59984.28
2022-11-17T07:34:06.775Z,59984.28
2022-11-17T07:36:34.227Z,60497.91
2022-11-17T07:39:21.698Z,61011.59
2022-11-17T07:42:00.424Z,61011.59
2022-11-17T07:44:30.206Z,61011.59
2022-11-17T07:47:00.150Z,60497.91
2022-11-17T07:49:29.057Z,60497.91
2022-11-17T07:51:56.775Z,61268.47
2022-11-17T07:54:24.301Z,62039.22
2022-11-17T07:56:52.200Z,62810.16
2022-11-17T07:59:21.885Z,62810.16
2022-11-17T08:01:49.522Z,63067.16
2022-11-17T08:04:22.846Z,63067.16
2022-11-17T08:06:52.445Z,62296.19
2022-11-17T08:09:22.459Z,61268.47
2022-11-17T08:11:51.920Z,61268.47
2022-11-17T08:14:19.365Z,61525.38
2022-11-17T08:16:49.472Z,61782.28
2022-11-17T08:19:17.192Z,62553.16
2022-11-17T08:21:44.818Z,62039.22
2022-11-17T08:24:13.007Z,61782.28
2022-11-17T08:26:40.613Z,62296.19
2022-11-17T08:29:39.639Z,63067.16
2022-11-17T08:32:09.540Z,65381.16
2022-11-17T08:34:37.119Z,70271.41
2022-11-17T08:37:04.872Z,71559.47
2022-11-17T08:39:35.389Z,70013.84
2022-11-17T08:42:05.701Z,68211.50
2022-11-17T08:44:33.210Z,68211.50
2022-11-17T08:47:02.203Z,67182.00
2022-11-17T08:50:16.915Z,63838.31
2022-11-17T08:52:45.857Z,63067.16
2022-11-17T08:56:15.616Z,61782.28
2022-11-17T09:02:26.801Z,58187.25
2022-11-17T09:05:48.468Z,58700.59
2022-11-17T09:08:56.206Z,57160.78
2022-11-17T09:11:41.441Z,55365.22
2022-11-17T09:14:31.773Z,54083.25
2022-11-17T09:17:01.922Z,55365.22
2022-11-17T09:19:29.694Z,55365.22
2022-11-17T09:21:58.369Z,56391.13
2022-11-17T09:24:26.806Z,54595.97
2022-11-17T09:26:57.391Z,52873.84
2022-11-17T09:29:26.027Z,51945.06
2022-11-17T09:31:53.620Z,50934.50
2022-11-17T09:34:21.514Z,50496.34
2022-11-17T09:37:16.990Z,49540.22
2022-11-17T09:39:47.125Z,50636.38
2022-11-17T09:42:33.288Z,51736.91
2022-11-17T09:45:17.218Z,50814.44
2022-11-17T09:48:07.274Z,49378.22
2022-11-17T09:50:57.850Z,48620.34
2022-11-17T09:54:14.718Z,47588.78
2022-11-17T09:56:48.614Z,47049.13
2022-11-17T09:59:20.548Z,46145.91
2022-11-17T10:01:52.563Z,45274.91
2022-11-17T10:04:21.259Z,44551.91
2022-11-17T10:06:51.095Z,44300.28
2022-11-17T10:09:44.161Z,44106.59
2022-11-17T10:21:09.391Z,43100.38
2022-11-17T10:23:47.441Z,42864.81
2022-11-17T10:26:23.019Z,42427.72
2022-11-17T10:29:11.525Z,42551.47
2022-11-17T10:34:47.250Z,42238.13
2022-11-17T10:37:20.381Z,41968.72
2022-11-17T10:40:34.677Z,41525.75
2022-11-17T10:43:11.477Z,41944.78
2022-11-17T10:45:52.327Z,43180.22
2022-11-17T10:48:35.875Z,44094.63
2022-11-17T10:51:15.477Z,44300.28
2022-11-17T10:54:01.392Z,44955.31
2022-11-17T10:56:35.153Z,47560.78
2022-11-17T10:59:15.306Z,49042.25
2022-11-17T11:01:46.013Z,53432.44
2022-11-17T11:04:32.637Z,54071.25
2022-11-17T11:07:21.662Z,56391.13
2022-11-17T11:10:02.788Z,59470.75
2022-11-17T11:12:56.850Z,71301.84
2022-11-17T11:15:26.999Z,74394.94
2022-11-17T11:17:54.366Z,74137.09
2022-11-17T11:20:39.191Z,73621.41
2022-11-17T11:23:19.835Z,72590.28
2022-11-17T11:26:22.639Z,73363.59
2022-11-17T11:29:12.439Z,74652.84
2022-11-17T11:31:50.338Z,84208.25
2022-11-17T11:34:40.004Z,86019.03
2022-11-17T11:37:16.464Z,87313.03
2022-11-17T11:40:09.998Z,89125.41
2022-11-17T11:42:57.893Z,90420.56
2022-11-17T11:45:37.812Z,90938.78
2022-11-17T11:48:23.347Z,90679.66
2022-11-17T11:51:09.620Z,90938.78
2022-11-17T11:53:56.881Z,88348.56
2022-11-17T11:56:40.918Z,86019.03
2022-11-17T11:59:26.410Z,86795.38
2022-11-17T12:02:02.227Z,85760.28
2022-11-17T12:04:44.223Z,84984.19
2022-11-17T12:07:26.546Z,83173.97
2022-11-17T12:09:56.375Z,80847.91
2022-11-17T12:12:37.443Z,79039.88
2022-11-17T12:15:20.115Z,78523.44
2022-11-17T12:18:04.556Z,76458.59
2022-11-17T12:20:35.771Z,74910.75
2022-11-17T12:23:27.800Z,73105.81
2022-11-17T12:25:57.974Z,71817.16
2022-11-17T12:28:41.349Z,69756.31
2022-11-17T12:31:44.897Z,67696.72
2022-11-17T12:34:21.612Z,67439.34
2022-11-17T12:37:20.252Z,68468.91
2022-11-17T12:40:09.064Z,69498.81
2022-11-17T12:43:15.553Z,71559.47
2022-11-17T12:46:09.512Z,72590.28
2022-11-17T12:48:39.448Z,73105.81
2022-11-17T12:51:16.336Z,73105.81
2022-11-17T12:53:59.810Z,72590.28
2022-11-17T12:57:00.606Z,71817.16
2022-11-17T12:59:45.057Z,71817.16
2022-11-17T13:02:31.368Z,70528.97
2022-11-17T13:05:08.990Z,71044.19
2022-11-17T13:07:37.596Z,70271.41
2022-11-17T13:10:05.553Z,70271.41
2022-11-17T13:12:34.312Z,68726.38
2022-11-17T13:15:05.101Z,66667.38
2022-11-17T13:17:34.675Z,64095.41
2022-11-17T13:20:28.621Z,61268.47
2022-11-17T13:23:04.784Z,59214.00
2022-11-17T13:25:33.587Z,56647.66
2022-11-17T13:28:04.668Z,56134.63
2022-11-17T13:30:39.678Z,55878.13
2022-11-17T13:33:20.861Z,56391.13
2022-11-17T13:35:48.965Z,56391.13
2022-11-17T13:38:29.881Z,55108.78
2022-11-17T13:40:59.111Z,55108.78
2022-11-17T13:43:31.140Z,54852.38
2022-11-17T13:46:08.359Z,54852.38
2022-11-17T13:48:40.751Z,54339.59
2022-11-17T13:51:30.481Z,54595.97
2022-11-17T13:54:00.197Z,52577.56
2022-11-17T13:56:40.265Z,49872.22
2022-11-17T13:59:24.470Z,47756.69
2022-11-17T14:02:16.885Z,46765.34
2022-11-17T14:05:17.268Z,47205.03
2022-11-17T14:07:47.995Z,45083.16
2022-11-17T14:10:21.783Z,45958.13
2022-11-17T14:12:51.826Z,45454.69
2022-11-17T14:15:24.589Z,44014.75
2022-11-17T14:17:56.622Z,43751.19
2022-11-17T14:20:24.722Z,42912.72
2022-11-17T14:23:05.738Z,42309.97
2022-11-17T14:25:42.339Z,41856.97
2022-11-17T14:28:23.527Z,41569.66
2022-11-17T14:30:55.430Z,41056.91
2022-11-17T14:33:46.392Z,40600.09
2022-11-17T14:36:19.665Z,40500.34
2022-11-17T14:38:49.295Z,40121.38
2022-11-17T14:41:17.956Z,39878.06
2022-11-17T14:43:47.523Z,39674.66
2022-11-17T14:46:37.396Z,39565.00
2022-11-17T14:49:05.324Z,39491.22
2022-11-17T14:51:33.009Z,39459.31
2022-11-17T14:54:01.944Z,39403.47
2022-11-17T14:56:29.690Z,39451.34
2022-11-17T14:59:04.356Z,39385.53
2022-11-17T15:01:40.451Z,39387.53
2022-11-17T15:04:34.536Z,39419.44
2022-11-17T15:06:57.304Z,39413.44
2022-11-17T15:09:26.758Z,39415.44
2022-11-17T15:11:56.357Z,39401.47
2022-11-17T15:14:27.659Z,39399.50
2022-11-17T15:17:24.582Z,39293.81
2022-11-17T15:20:13.719Z,39287.81
2022-11-17T15:23:03.050Z,39363.59
2022-11-17T15:29:37.671Z,39275.88
2022-11-17T15:32:08.274Z,39230.00
2022-11-17T15:34:43.706Z,39200.09
2022-11-17T15:37:43.723Z,39188.13
2022-11-17T15:40:19.740Z,39190.13
2022-11-17T15:42:47.390Z,39172.19
2022-11-17T15:45:20.886Z,39160.22
2022-11-17T15:47:49.596Z,39160.22
2022-11-17T15:50:18.734Z,39134.31
2022-11-17T15:53:03.567Z,39140.28
2022-11-17T15:55:35.259Z,39138.28
2022-11-17T15:58:02.903Z,39102.41
2022-11-17T16:00:30.415Z,39144.28
2022-11-17T16:02:58.882Z,39122.34
2022-11-17T16:05:28.520Z,39130.31
2022-11-17T16:07:58.143Z,39140.28
2022-11-17T16:10:27.306Z,39146.25
2022-11-17T16:12:55.456Z,39144.28
2022-11-17T16:15:24.049Z,39124.31
2022-11-17T16:17:51.462Z,39116.34
2022-11-17T16:20:19.321Z,39132.31
2022-11-17T16:22:46.930Z,39140.28
2022-11-17T16:25:14.378Z,39112.38
2022-11-17T16:27:43.160Z,39140.28
2022-11-17T16:30:11.272Z,39146.25
2022-11-17T16:32:41.855Z,39116.34
2022-11-17T16:35:09.352Z,39126.31
2022-11-17T16:37:36.901Z,39124.31
2022-11-17T16:40:04.987Z,39126.31
2022-11-17T16:42:32.740Z,39098.41
2022-11-17T16:45:00.512Z,39142.28
2022-11-17T16:47:28.638Z,39136.28
2022-11-17T16:49:56.126Z,39164.22
2022-11-17T16:52:24.710Z,39144.28
2022-11-17T16:54:52.246Z,39172.19
2022-11-17T16:57:22.302Z,39174.19
2022-11-17T16:59:49.823Z,39162.22
2022-11-17T17:02:18.310Z,39156.22
2022-11-17T17:04:45.948Z,39172.19
2022-11-17T17:07:14.348Z,39176.16
2022-11-17T17:09:44.414Z,39204.09
2022-11-17T17:12:12.262Z,39178.16
2022-11-17T17:14:43.456Z,39184.16
2022-11-17T17:17:10.968Z,39172.19
2022-11-17T17:19:38.418Z,39204.09
2022-11-17T17:22:08.271Z,39194.13
2022-11-17T17:24:35.652Z,39190.13
2022-11-17T17:27:03.454Z,39168.19
2022-11-17T17:29:32.052Z,39190.13
2022-11-17T17:31:59.910Z,39212.06
2022-11-17T17:34:27.580Z,39188.13
2022-11-17T17:36:54.990Z,39202.09
2022-11-17T17:39:23.539Z,39202.09
2022-11-17T17:41:51.228Z,39230.00
2022-11-17T17:44:21.839Z,39208.06
2022-11-17T17:46:49.519Z,39228.00
2022-11-17T17:49:19.830Z,39239.97
2022-11-17T17:51:47.597Z,39230.00
2022-11-17T17:54:17.467Z,39218.03
2022-11-17T17:56:46.038Z,39232.00
2022-11-17T17:59:14.064Z,39230.00
2022-11-17T18:01:42.320Z,39234.00
2022-11-17T18:04:15.780Z,39243.97
2022-11-17T18:06:48.780Z,39235.97
2022-11-17T18:09:20.463Z,39257.91
2022-11-17T18:11:49.674Z,39251.94
2022-11-17T18:14:21.193Z,39271.88
2022-11-17T18:16:48.634Z,39269.88
2022-11-17T18:19:16.556Z,39319.72
2022-11-17T18:21:57.393Z,39273.88
2022-11-17T18:24:30.786Z,39235.97
2022-11-17T18:26:58.294Z,39198.09
2022-11-17T18:29:25.914Z,39160.22
2022-11-17T18:31:55.998Z,39196.09
2022-11-17T18:34:28.227Z,39208.06
2022-11-17T18:36:59.098Z,39212.06
2022-11-17T18:39:29.342Z,39230.00
2022-11-17T18:41:57.018Z,39247.94
2022-11-17T18:44:24.594Z,39327.72
2022-11-17T18:46:52.652Z,39455.31
2022-11-17T18:49:20.858Z,39519.13
2022-11-17T18:51:49.626Z,39588.91
2022-11-17T18:54:19.282Z,39561.00
2022-11-17T18:56:46.919Z,39517.13
2022-11-17T18:59:18.606Z,39580.94
2022-11-17T19:01:47.629Z,39602.88
2022-11-17T19:04:16.441Z,39646.75
2022-11-17T19:06:47.175Z,39734.50
2022-11-17T19:09:20.166Z,39852.16
2022-11-17T19:11:59.543Z,39868.09
2022-11-17T19:14:32.982Z,39987.75
2022-11-17T19:17:02.618Z,39997.75
2022-11-17T19:19:30.523Z,40035.63
2022-11-17T19:22:00.456Z,40117.41
2022-11-17T19:24:28.191Z,40169.25
2022-11-17T19:26:56.590Z,40217.13
2022-11-17T19:29:24.261Z,40237.06
2022-11-17T19:31:52.809Z,40221.09
2022-11-17T19:34:20.311Z,40274.97
2022-11-17T19:36:48.311Z,40294.91
2022-11-17T19:39:17.322Z,40352.75
2022-11-17T19:41:48.862Z,40340.78
2022-11-17T19:44:19.525Z,40444.50
2022-11-17T19:46:48.011Z,40402.63
2022-11-17T19:49:16.885Z,40384.66
2022-11-17T19:51:50.758Z,40428.53
2022-11-17T19:54:22.103Z,40474.41
2022-11-17T19:56:57.132Z,40544.22
2022-11-17T19:59:24.560Z,40594.09
2022-11-17T20:01:57.551Z,40582.13
2022-11-17T20:05:21.620Z,40570.16
2022-11-17T20:07:55.776Z,40743.69
2022-11-17T20:10:47.859Z,40713.78
2022-11-17T20:13:17.285Z,40649.94
2022-11-17T20:16:00.041Z,40647.97
2022-11-17T20:18:30.792Z,40669.91
2022-11-17T20:21:18.339Z,40749.69
2022-11-17T20:23:54.635Z,40683.84
2022-11-17T20:26:30.617Z,40661.91
2022-11-17T20:30:00.454Z,40614.03
2022-11-17T20:32:32.918Z,40767.63
2022-11-17T20:35:00.479Z,40717.78
2022-11-17T20:37:29.987Z,40735.72
2022-11-17T20:39:57.523Z,40679.88
2022-11-17T20:42:25.877Z,40833.47
2022-11-17T20:44:53.424Z,40855.41
2022-11-17T20:47:22.595Z,40983.09
2022-11-17T20:49:50.107Z,40983.09
2022-11-17T20:52:17.982Z,40997.06
2022-11-17T20:54:45.328Z,40963.13
2022-11-17T20:57:12.947Z,40903.28
2022-11-17T20:59:43.570Z,40891.31
2022-11-17T21:02:13.303Z,40853.41
2022-11-17T21:04:40.967Z,40801.56
2022-11-17T21:07:08.528Z,40823.50
2022-11-17T21:09:38.124Z,40885.34
2022-11-17T21:12:13.102Z,40813.53
2022-11-17T21:14:40.655Z,40813.53
2022-11-17T21:17:28.319Z,40757.66
2022-11-17T21:19:55.849Z,40769.63
2022-11-17T21:22:23.394Z,40727.75
2022-11-17T21:24:52.613Z,40636.00
2022-11-17T21:27:23.105Z,40626.00
2022-11-17T21:29:58.138Z,40647.97
2022-11-17T21:32:26.887Z,40466.44
2022-11-17T21:35:01.246Z,40488.38
2022-11-17T21:37:28.682Z,40466.44
2022-11-17T21:39:56.154Z,40430.53
2022-11-17T21:42:26.307Z,40400.63
2022-11-17T21:44:59.028Z,40360.72
2022-11-17T21:47:27.067Z,40324.81
2022-11-17T21:49:55.964Z,40255.00
2022-11-17T21:52:27.136Z,40235.06
2022-11-17T21:54:55.557Z,40179.22
2022-11-17T21:57:23.255Z,40095.47
2022-11-17T21:59:50.732Z,40053.56
2022-11-17T22:02:22.195Z,40017.69
2022-11-17T22:04:49.836Z,39991.75
2022-11-17T22:07:17.324Z,39955.84
2022-11-17T22:09:44.984Z,39806.28
2022-11-17T22:12:12.567Z,39762.41
2022-11-17T22:14:40.341Z,39670.69
2022-11-17T22:17:13.343Z,39694.59
2022-11-17T22:19:40.942Z,39656.72
2022-11-17T22:22:08.205Z,39686.63
2022-11-17T22:24:38.699Z,39604.88
2022-11-17T22:27:07.121Z,39559.00
2022-11-17T22:29:34.610Z,39471.28
2022-11-17T22:32:02.487Z,39391.50
2022-11-17T22:34:34.345Z,39389.53
2022-11-17T22:37:07.005Z,39507.16
2022-11-17T22:39:35.425Z,39489.22
2022-11-17T22:42:05.305Z,39495.19
2022-11-17T22:44:32.874Z,39479.25
2022-11-17T22:47:00.161Z,39455.31
2022-11-17T22:49:27.754Z,39407.47
2022-11-17T22:52:08.517Z,39445.34
2022-11-17T22:54:38.652Z,39431.38
2022-11-17T22:57:06.333Z,39489.22
2022-11-17T22:59:36.062Z,39455.31
2022-11-17T23:02:03.625Z,39439.38
2022-11-17T23:04:32.052Z,39361.59
2022-11-17T23:06:59.555Z,39427.41
2022-11-17T23:09:27.495Z,39385.53
2022-11-17T23:11:56.226Z,39371.56
2022-11-17T23:14:25.773Z,39343.66
2022-11-17T23:16:53.204Z,39367.59
2022-11-17T23:19:22.903Z,39387.53
2022-11-17T23:21:50.335Z,39339.66
2022-11-17T23:24:17.749Z,39319.72
2022-11-17T23:26:47.048Z,39371.56
2022-11-17T23:29:14.680Z,39391.50
2022-11-17T23:31:42.440Z,39351.63
2022-11-17T23:34:11.123Z,39351.63
2022-11-17T23:36:39.016Z,39405.47
2022-11-17T23:39:09.573Z,39287.81
2022-11-17T23:41:40.259Z,39331.69
2022-11-17T23:44:07.865Z,39371.56
2022-11-17T23:46:35.331Z,39359.59
2022-11-17T23:49:03.411Z,39357.63
2022-11-17T23:51:31.054Z,39327.72
2022-11-17T23:54:00.865Z,39351.63
2022-11-17T23:56:32.150Z,39367.59
2022-11-17T23:58:59.864Z,39309.75
